createdAt,value
2023-01-31T22:59:32.135Z,5.36
2023-01-31T23:00:32.161Z,5.35
2023-01-31T23:01:32.155Z,5.33
2023-01-31T23:02:32.113Z,5.38
2023-01-31T23:03:32.121Z,5.40
2023-01-31T23:04:32.110Z,5.36
2023-01-31T23:05:32.066Z,5.43
2023-01-31T23:06:32.050Z,5.42
2023-01-31T23:07:32.030Z,5.49
2023-01-31T23:08:32.051Z,5.45
2023-01-31T23:09:32.019Z,5.46
2023-01-31T23:10:32.018Z,5.46
2023-01-31T23:11:32.000Z,5.46
2023-01-31T23:12:31.957Z,5.48
2023-01-31T23:13:31.968Z,5.46
2023-01-31T23:14:31.967Z,5.53
2023-01-31T23:15:31.933Z,5.51
2023-01-31T23:16:31.952Z,5.54
2023-01-31T23:17:31.896Z,5.54
2023-01-31T23:18:31.912Z,5.57
2023-01-31T23:19:31.890Z,5.53
2023-01-31T23:20:31.850Z,5.54
2023-01-31T23:21:31.852Z,5.49
2023-01-31T23:22:31.849Z,5.49
2023-01-31T23:23:31.870Z,5.45
2023-01-31T23:24:31.787Z,5.53
2023-01-31T23:25:31.811Z,5.53
2023-01-31T23:26:31.834Z,5.48
2023-01-31T23:27:31.787Z,5.46
2023-01-31T23:28:31.764Z,5.42
2023-01-31T23:29:31.759Z,5.42
2023-01-31T23:30:31.823Z,5.42
2023-01-31T23:31:31.874Z,5.51
2023-01-31T23:32:31.696Z,5.51
2023-01-31T23:33:31.704Z,5.46
2023-01-31T23:34:31.689Z,5.42
2023-01-31T23:35:31.669Z,5.42
2023-01-31T23:36:31.696Z,5.42
2023-01-31T23:37:31.635Z,5.42
2023-01-31T23:38:31.615Z,5.39
2023-01-31T23:39:31.608Z,5.42
2023-01-31T23:40:31.590Z,5.46
2023-01-31T23:41:31.578Z,5.43
2023-01-31T23:42:31.616Z,5.56
2023-01-31T23:43:31.559Z,5.60
2023-01-31T23:44:31.606Z,5.57
2023-01-31T23:45:31.581Z,5.63
2023-01-31T23:46:31.584Z,5.63
2023-01-31T23:47:31.520Z,5.61
2023-01-31T23:48:31.506Z,5.71
2023-01-31T23:49:31.500Z,5.75
2023-01-31T23:50:31.512Z,5.81
2023-01-31T23:51:31.518Z,5.86
2023-01-31T23:52:31.443Z,5.89
2023-01-31T23:53:31.439Z,5.91
2023-01-31T23:54:31.412Z,5.94
2023-01-31T23:55:31.405Z,5.93
2023-01-31T23:56:31.476Z,5.93
2023-01-31T23:57:31.380Z,5.94
2023-01-31T23:58:31.355Z,5.96
2023-01-31T23:59:31.390Z,5.97
